Terminal Aerodrome Forecast
Issued by NWS

Home | Current Version | Previous Version | Text Only | Print | Product List | Glossary On
Versions: 1 2 3 4 5 6 7 8 9 10 11 12
108
FTUS43 KPAH 221720
TAFMVN
TAF
KMVN 221720Z 2218/2318 20014KT P6SM FEW250
     FM230100 20009KT P6SM SCT200
     FM231100 23007KT P6SM BKN050
     FM231400 26007KT P6SM BKN026=

USA.gov is the U.S. government's official web portal to all federal, state and local government web resources and services.